sensor_id;sensor_type;location;lat;lon;timestamp;P1;durP1;ratioP1;P2;durP2;ratioP2
51800;SDS011;37855;53.204;6.568;2023-06-14T00:00:52;4.97;;;1.90;;
51800;SDS011;37855;53.204;6.568;2023-06-14T00:03:18;5.43;;;1.98;;
51800;SDS011;37855;53.204;6.568;2023-06-14T00:05:47;6.10;;;2.20;;
51800;SDS011;37855;53.204;6.568;2023-06-14T00:08:13;7.30;;;2.88;;
51800;SDS011;37855;53.204;6.568;2023-06-14T00:10:40;5.70;;;2.22;;
51800;SDS011;37855;53.204;6.568;2023-06-14T00:13:07;5.43;;;2.10;;
51800;SDS011;37855;53.204;6.568;2023-06-14T00:15:34;6.43;;;2.10;;
51800;SDS011;37855;53.204;6.568;2023-06-14T00:18:03;7.00;;;2.10;;
51800;SDS011;37855;53.204;6.568;2023-06-14T00:20:30;5.20;;;2.05;;
51800;SDS011;37855;53.204;6.568;2023-06-14T00:22:58;5.90;;;1.90;;
51800;SDS011;37855;53.204;6.568;2023-06-14T00:25:25;6.63;;;1.97;;
51800;SDS011;37855;53.204;6.568;2023-06-14T00:27:53;5.63;;;1.90;;
51800;SDS011;37855;53.204;6.568;2023-06-14T00:30:20;4.47;;;1.77;;
51800;SDS011;37855;53.204;6.568;2023-06-14T00:32:46;6.90;;;1.80;;
51800;SDS011;37855;53.204;6.568;2023-06-14T00:35:12;6.18;;;1.83;;
51800;SDS011;37855;53.204;6.568;2023-06-14T00:37:38;7.60;;;1.90;;
51800;SDS011;37855;53.204;6.568;2023-06-14T00:40:04;5.53;;;1.88;;
51800;SDS011;37855;53.204;6.568;2023-06-14T00:42:31;6.85;;;2.13;;
51800;SDS011;37855;53.204;6.568;2023-06-14T00:44:57;5.28;;;1.83;;
51800;SDS011;37855;53.204;6.568;2023-06-14T00:47:23;4.40;;;2.10;;
51800;SDS011;37855;53.204;6.568;2023-06-14T00:49:50;4.45;;;1.67;;
51800;SDS011;37855;53.204;6.568;2023-06-14T00:52:19;4.22;;;1.67;;
51800;SDS011;37855;53.204;6.568;2023-06-14T00:54:45;7.05;;;1.73;;
51800;SDS011;37855;53.204;6.568;2023-06-14T00:57:14;7.30;;;2.00;;
51800;SDS011;37855;53.204;6.568;2023-06-14T00:59:43;5.83;;;1.93;;
51800;SDS011;37855;53.204;6.568;2023-06-14T01:02:11;6.28;;;1.80;;
51800;SDS011;37855;53.204;6.568;2023-06-14T01:04:37;4.70;;;1.70;;
51800;SDS011;37855;53.204;6.568;2023-06-14T01:09:58;6.17;;;1.70;;
51800;SDS011;37855;53.204;6.568;2023-06-14T01:15:17;4.60;;;1.55;;
51800;SDS011;37855;53.204;6.568;2023-06-14T01:17:45;5.38;;;1.70;;
51800;SDS011;37855;53.204;6.568;2023-06-14T01:20:16;5.75;;;1.55;;
51800;SDS011;37855;53.204;6.568;2023-06-14T01:22:54;4.43;;;1.70;;
51800;SDS011;37855;53.204;6.568;2023-06-14T01:25:23;5.38;;;1.60;;
51800;SDS011;37855;53.204;6.568;2023-06-14T01:27:51;5.75;;;1.60;;
51800;SDS011;37855;53.204;6.568;2023-06-14T01:30:17;5.28;;;1.70;;
51800;SDS011;37855;53.204;6.568;2023-06-14T01:32:45;4.75;;;1.80;;
51800;SDS011;37855;53.204;6.568;2023-06-14T01:35:11;5.03;;;1.53;;
51800;SDS011;37855;53.204;6.568;2023-06-14T01:37:39;4.85;;;2.00;;
51800;SDS011;37855;53.204;6.568;2023-06-14T01:40:06;4.50;;;1.67;;
51800;SDS011;37855;53.204;6.568;2023-06-14T01:42:34;4.05;;;1.58;;
51800;SDS011;37855;53.204;6.568;2023-06-14T01:45:04;4.57;;;1.77;;
51800;SDS011;37855;53.204;6.568;2023-06-14T01:47:31;4.13;;;1.80;;
51800;SDS011;37855;53.204;6.568;2023-06-14T01:49:57;4.97;;;2.00;;
51800;SDS011;37855;53.204;6.568;2023-06-14T01:52:23;6.95;;;2.15;;
51800;SDS011;37855;53.204;6.568;2023-06-14T01:54:49;4.53;;;1.83;;
51800;SDS011;37855;53.204;6.568;2023-06-14T01:57:16;5.97;;;1.70;;
51800;SDS011;37855;53.204;6.568;2023-06-14T01:59:42;6.43;;;1.90;;
51800;SDS011;37855;53.204;6.568;2023-06-14T02:02:08;9.65;;;2.17;;
51800;SDS011;37855;53.204;6.568;2023-06-14T02:04:33;3.63;;;1.90;;
51800;SDS011;37855;53.204;6.568;2023-06-14T02:06:59;4.17;;;1.77;;
51800;SDS011;37855;53.204;6.568;2023-06-14T02:09:25;5.20;;;2.00;;
51800;SDS011;37855;53.204;6.568;2023-06-14T02:11:51;4.60;;;1.90;;
51800;SDS011;37855;53.204;6.568;2023-06-14T02:14:16;4.18;;;1.92;;
51800;SDS011;37855;53.204;6.568;2023-06-14T02:16:43;8.07;;;2.00;;
51800;SDS011;37855;53.204;6.568;2023-06-14T02:19:17;4.50;;;1.70;;
51800;SDS011;37855;53.204;6.568;2023-06-14T02:21:43;5.13;;;1.73;;
51800;SDS011;37855;53.204;6.568;2023-06-14T02:24:10;3.88;;;1.80;;
51800;SDS011;37855;53.204;6.568;2023-06-14T02:26:37;5.80;;;1.95;;
51800;SDS011;37855;53.204;6.568;2023-06-14T02:29:05;3.90;;;1.70;;
51800;SDS011;37855;53.204;6.568;2023-06-14T02:31:33;6.50;;;2.20;;
51800;SDS011;37855;53.204;6.568;2023-06-14T02:34:01;4.55;;;1.80;;
51800;SDS011;37855;53.204;6.568;2023-06-14T02:36:27;5.05;;;1.85;;
51800;SDS011;37855;53.204;6.568;2023-06-14T02:38:55;5.37;;;2.27;;
51800;SDS011;37855;53.204;6.568;2023-06-14T02:41:22;9.23;;;2.30;;
51800;SDS011;37855;53.204;6.568;2023-06-14T02:43:49;4.68;;;1.80;;
51800;SDS011;37855;53.204;6.568;2023-06-14T02:46:14;5.70;;;2.22;;
51800;SDS011;37855;53.204;6.568;2023-06-14T02:48:40;7.23;;;2.00;;
51800;SDS011;37855;53.204;6.568;2023-06-14T02:51:06;5.95;;;2.05;;
51800;SDS011;37855;53.204;6.568;2023-06-14T02:53:34;8.45;;;2.35;;
51800;SDS011;37855;53.204;6.568;2023-06-14T02:56:00;5.07;;;2.50;;
51800;SDS011;37855;53.204;6.568;2023-06-14T02:58:26;6.00;;;2.40;;
51800;SDS011;37855;53.204;6.568;2023-06-14T03:00:52;8.18;;;2.38;;
51800;SDS011;37855;53.204;6.568;2023-06-14T03:03:20;7.07;;;2.97;;
51800;SDS011;37855;53.204;6.568;2023-06-14T03:05:50;5.53;;;2.35;;
51800;SDS011;37855;53.204;6.568;2023-06-14T03:08:19;5.10;;;2.20;;
51800;SDS011;37855;53.204;6.568;2023-06-14T03:10:47;5.65;;;2.38;;
51800;SDS011;37855;53.204;6.568;2023-06-14T03:13:14;5.25;;;2.55;;
51800;SDS011;37855;53.204;6.568;2023-06-14T03:15:47;8.40;;;2.45;;
51800;SDS011;37855;53.204;6.568;2023-06-14T03:18:15;4.78;;;2.10;;
51800;SDS011;37855;53.204;6.568;2023-06-14T03:20:42;5.87;;;2.37;;
51800;SDS011;37855;53.204;6.568;2023-06-14T03:23:08;5.43;;;2.20;;
51800;SDS011;37855;53.204;6.568;2023-06-14T03:25:33;5.90;;;2.30;;
51800;SDS011;37855;53.204;6.568;2023-06-14T03:28:03;7.22;;;2.42;;
51800;SDS011;37855;53.204;6.568;2023-06-14T03:30:30;4.83;;;2.20;;
51800;SDS011;37855;53.204;6.568;2023-06-14T03:32:56;11.60;;;2.63;;
51800;SDS011;37855;53.204;6.568;2023-06-14T03:35:22;5.13;;;2.40;;
51800;SDS011;37855;53.204;6.568;2023-06-14T03:37:48;6.55;;;2.20;;
51800;SDS011;37855;53.204;6.568;2023-06-14T03:40:15;5.63;;;2.37;;
51800;SDS011;37855;53.204;6.568;2023-06-14T03:42:47;5.47;;;2.55;;
51800;SDS011;37855;53.204;6.568;2023-06-14T03:45:13;5.18;;;2.05;;
51800;SDS011;37855;53.204;6.568;2023-06-14T03:47:38;8.43;;;2.67;;
51800;SDS011;37855;53.204;6.568;2023-06-14T03:50:04;9.15;;;2.60;;
51800;SDS011;37855;53.204;6.568;2023-06-14T03:52:30;7.80;;;2.50;;
51800;SDS011;37855;53.204;6.568;2023-06-14T03:54:56;8.37;;;2.60;;
51800;SDS011;37855;53.204;6.568;2023-06-14T03:57:23;6.20;;;2.38;;
51800;SDS011;37855;53.204;6.568;2023-06-14T03:59:48;6.05;;;2.55;;
51800;SDS011;37855;53.204;6.568;2023-06-14T04:02:16;7.17;;;2.27;;
51800;SDS011;37855;53.204;6.568;2023-06-14T04:04:43;5.68;;;2.35;;
51800;SDS011;37855;53.204;6.568;2023-06-14T04:07:15;5.90;;;2.30;;
51800;SDS011;37855;53.204;6.568;2023-06-14T04:09:44;7.75;;;2.20;;
51800;SDS011;37855;53.204;6.568;2023-06-14T04:12:12;5.32;;;2.30;;
51800;SDS011;37855;53.204;6.568;2023-06-14T04:14:39;10.53;;;2.40;;
51800;SDS011;37855;53.204;6.568;2023-06-14T04:17:05;7.20;;;2.72;;
51800;SDS011;37855;53.204;6.568;2023-06-14T04:19:31;7.18;;;2.50;;
51800;SDS011;37855;53.204;6.568;2023-06-14T04:21:58;5.23;;;2.40;;
51800;SDS011;37855;53.204;6.568;2023-06-14T04:24:27;8.98;;;2.65;;
51800;SDS011;37855;53.204;6.568;2023-06-14T04:27:00;6.07;;;2.58;;
51800;SDS011;37855;53.204;6.568;2023-06-14T04:29:27;6.70;;;2.90;;
51800;SDS011;37855;53.204;6.568;2023-06-14T04:31:54;10.97;;;2.73;;
51800;SDS011;37855;53.204;6.568;2023-06-14T04:34:28;7.70;;;2.63;;
51800;SDS011;37855;53.204;6.568;2023-06-14T04:36:59;6.30;;;3.03;;
51800;SDS011;37855;53.204;6.568;2023-06-14T04:39:26;7.05;;;2.40;;
51800;SDS011;37855;53.204;6.568;2023-06-14T04:41:52;7.53;;;2.90;;
51800;SDS011;37855;53.204;6.568;2023-06-14T04:44:22;8.80;;;2.80;;
51800;SDS011;37855;53.204;6.568;2023-06-14T04:46:49;5.80;;;2.80;;
51800;SDS011;37855;53.204;6.568;2023-06-14T04:49:15;7.28;;;3.10;;
51800;SDS011;37855;53.204;6.568;2023-06-14T04:51:44;7.65;;;2.30;;
51800;SDS011;37855;53.204;6.568;2023-06-14T04:54:11;8.48;;;2.95;;
51800;SDS011;37855;53.204;6.568;2023-06-14T04:56:40;7.20;;;2.80;;
51800;SDS011;37855;53.204;6.568;2023-06-14T04:59:07;5.90;;;2.42;;
51800;SDS011;37855;53.204;6.568;2023-06-14T05:01:34;6.10;;;2.78;;
51800;SDS011;37855;53.204;6.568;2023-06-14T05:04:00;9.70;;;2.90;;
51800;SDS011;37855;53.204;6.568;2023-06-14T05:06:26;9.67;;;3.20;;
51800;SDS011;37855;53.204;6.568;2023-06-14T05:08:52;5.72;;;3.20;;
51800;SDS011;37855;53.204;6.568;2023-06-14T05:11:18;9.20;;;3.90;;
51800;SDS011;37855;53.204;6.568;2023-06-14T05:13:44;9.85;;;3.45;;
51800;SDS011;37855;53.204;6.568;2023-06-14T05:16:11;9.73;;;3.97;;
51800;SDS011;37855;53.204;6.568;2023-06-14T05:18:37;9.00;;;3.07;;
51800;SDS011;37855;53.204;6.568;2023-06-14T05:21:03;8.15;;;3.33;;
51800;SDS011;37855;53.204;6.568;2023-06-14T05:23:31;8.15;;;3.50;;
51800;SDS011;37855;53.204;6.568;2023-06-14T05:25:57;11.07;;;4.07;;
51800;SDS011;37855;53.204;6.568;2023-06-14T05:28:23;9.60;;;3.35;;
51800;SDS011;37855;53.204;6.568;2023-06-14T05:30:49;11.30;;;4.78;;
51800;SDS011;37855;53.204;6.568;2023-06-14T05:33:16;13.23;;;3.33;;
51800;SDS011;37855;53.204;6.568;2023-06-14T05:35:42;9.93;;;4.07;;
51800;SDS011;37855;53.204;6.568;2023-06-14T05:38:07;11.93;;;4.50;;
51800;SDS011;37855;53.204;6.568;2023-06-14T05:40:33;8.20;;;4.00;;
51800;SDS011;37855;53.204;6.568;2023-06-14T05:42:59;8.43;;;4.00;;
51800;SDS011;37855;53.204;6.568;2023-06-14T05:45:26;8.67;;;3.70;;
51800;SDS011;37855;53.204;6.568;2023-06-14T05:47:52;7.85;;;4.20;;
51800;SDS011;37855;53.204;6.568;2023-06-14T05:50:19;8.43;;;4.20;;
51800;SDS011;37855;53.204;6.568;2023-06-14T05:52:45;11.77;;;3.93;;
51800;SDS011;37855;53.204;6.568;2023-06-14T05:55:15;10.82;;;3.58;;
51800;SDS011;37855;53.204;6.568;2023-06-14T05:57:41;12.27;;;4.07;;
51800;SDS011;37855;53.204;6.568;2023-06-14T06:00:07;7.65;;;3.92;;
51800;SDS011;37855;53.204;6.568;2023-06-14T06:02:36;11.57;;;3.77;;
51800;SDS011;37855;53.204;6.568;2023-06-14T06:05:02;8.35;;;3.60;;
51800;SDS011;37855;53.204;6.568;2023-06-14T06:07:28;8.80;;;3.53;;
51800;SDS011;37855;53.204;6.568;2023-06-14T06:09:55;11.02;;;3.78;;
51800;SDS011;37855;53.204;6.568;2023-06-14T06:12:20;8.43;;;4.00;;
51800;SDS011;37855;53.204;6.568;2023-06-14T06:14:46;10.90;;;3.63;;
51800;SDS011;37855;53.204;6.568;2023-06-14T06:17:12;8.20;;;3.53;;
51800;SDS011;37855;53.204;6.568;2023-06-14T06:19:37;13.23;;;3.77;;
51800;SDS011;37855;53.204;6.568;2023-06-14T06:22:03;10.30;;;4.10;;
51800;SDS011;37855;53.204;6.568;2023-06-14T06:24:31;6.37;;;3.10;;
51800;SDS011;37855;53.204;6.568;2023-06-14T06:26:57;11.63;;;4.35;;
51800;SDS011;37855;53.204;6.568;2023-06-14T06:29:23;9.98;;;3.55;;
51800;SDS011;37855;53.204;6.568;2023-06-14T06:31:48;9.63;;;3.60;;
51800;SDS011;37855;53.204;6.568;2023-06-14T06:34:14;11.45;;;3.72;;
51800;SDS011;37855;53.204;6.568;2023-06-14T06:36:40;9.50;;;2.70;;
51800;SDS011;37855;53.204;6.568;2023-06-14T06:39:07;7.78;;;3.10;;
51800;SDS011;37855;53.204;6.568;2023-06-14T06:41:35;11.90;;;3.45;;
51800;SDS011;37855;53.204;6.568;2023-06-14T06:44:04;10.38;;;3.30;;
51800;SDS011;37855;53.204;6.568;2023-06-14T06:46:31;9.07;;;3.20;;
51800;SDS011;37855;53.204;6.568;2023-06-14T06:49:04;7.80;;;2.83;;
51800;SDS011;37855;53.204;6.568;2023-06-14T06:51:30;11.43;;;3.33;;
51800;SDS011;37855;53.204;6.568;2023-06-14T06:53:56;7.77;;;2.90;;
51800;SDS011;37855;53.204;6.568;2023-06-14T06:56:22;11.57;;;2.80;;
51800;SDS011;37855;53.204;6.568;2023-06-14T06:58:52;9.38;;;3.17;;
51800;SDS011;37855;53.204;6.568;2023-06-14T07:01:17;8.27;;;2.90;;
51800;SDS011;37855;53.204;6.568;2023-06-14T07:03:44;9.45;;;3.03;;
51800;SDS011;37855;53.204;6.568;2023-06-14T07:06:13;7.32;;;2.70;;
51800;SDS011;37855;53.204;6.568;2023-06-14T07:08:39;11.80;;;2.87;;
51800;SDS011;37855;53.204;6.568;2023-06-14T07:11:05;16.13;;;3.15;;
51800;SDS011;37855;53.204;6.568;2023-06-14T07:13:31;6.60;;;2.58;;
51800;SDS011;37855;53.204;6.568;2023-06-14T07:15:57;9.43;;;3.00;;
51800;SDS011;37855;53.204;6.568;2023-06-14T07:18:24;8.05;;;2.40;;
51800;SDS011;37855;53.204;6.568;2023-06-14T07:20:49;7.00;;;2.80;;
51800;SDS011;37855;53.204;6.568;2023-06-14T07:23:15;8.60;;;2.67;;
51800;SDS011;37855;53.204;6.568;2023-06-14T07:25:41;9.02;;;2.60;;
51800;SDS011;37855;53.204;6.568;2023-06-14T07:28:07;6.73;;;2.70;;
51800;SDS011;37855;53.204;6.568;2023-06-14T07:30:32;11.35;;;3.35;;
51800;SDS011;37855;53.204;6.568;2023-06-14T07:32:58;10.57;;;2.83;;
51800;SDS011;37855;53.204;6.568;2023-06-14T07:35:24;6.75;;;2.50;;
51800;SDS011;37855;53.204;6.568;2023-06-14T07:37:49;8.40;;;2.77;;
51800;SDS011;37855;53.204;6.568;2023-06-14T07:40:15;7.88;;;2.47;;
51800;SDS011;37855;53.204;6.568;2023-06-14T07:42:44;8.47;;;2.53;;
51800;SDS011;37855;53.204;6.568;2023-06-14T07:45:12;8.30;;;2.50;;
51800;SDS011;37855;53.204;6.568;2023-06-14T07:47:41;9.90;;;2.80;;
51800;SDS011;37855;53.204;6.568;2023-06-14T07:50:06;15.90;;;2.67;;
51800;SDS011;37855;53.204;6.568;2023-06-14T07:52:32;7.87;;;2.47;;
51800;SDS011;37855;53.204;6.568;2023-06-14T07:54:58;7.95;;;2.97;;
51800;SDS011;37855;53.204;6.568;2023-06-14T07:57:24;7.77;;;2.40;;
51800;SDS011;37855;53.204;6.568;2023-06-14T07:59:50;11.38;;;2.95;;
51800;SDS011;37855;53.204;6.568;2023-06-14T08:02:15;8.80;;;2.67;;
51800;SDS011;37855;53.204;6.568;2023-06-14T08:04:41;6.72;;;2.40;;
51800;SDS011;37855;53.204;6.568;2023-06-14T08:07:08;5.72;;;2.70;;
51800;SDS011;37855;53.204;6.568;2023-06-14T08:09:34;8.73;;;2.70;;
51800;SDS011;37855;53.204;6.568;2023-06-14T08:12:03;11.45;;;2.88;;
51800;SDS011;37855;53.204;6.568;2023-06-14T08:14:34;9.13;;;2.50;;
51800;SDS011;37855;53.204;6.568;2023-06-14T08:17:00;9.80;;;2.60;;
51800;SDS011;37855;53.204;6.568;2023-06-14T08:19:26;7.63;;;2.70;;
51800;SDS011;37855;53.204;6.568;2023-06-14T08:21:52;7.15;;;2.40;;
51800;SDS011;37855;53.204;6.568;2023-06-14T08:24:21;10.73;;;2.40;;
51800;SDS011;37855;53.204;6.568;2023-06-14T08:26:49;6.95;;;2.72;;
51800;SDS011;37855;53.204;6.568;2023-06-14T08:29:15;7.45;;;2.60;;
51800;SDS011;37855;53.204;6.568;2023-06-14T08:31:44;9.43;;;2.75;;
51800;SDS011;37855;53.204;6.568;2023-06-14T08:34:10;6.05;;;2.50;;
51800;SDS011;37855;53.204;6.568;2023-06-14T08:36:36;10.37;;;2.93;;
51800;SDS011;37855;53.204;6.568;2023-06-14T08:39:02;10.50;;;2.50;;
51800;SDS011;37855;53.204;6.568;2023-06-14T08:41:27;13.93;;;2.70;;
51800;SDS011;37855;53.204;6.568;2023-06-14T08:43:55;7.38;;;2.47;;
51800;SDS011;37855;53.204;6.568;2023-06-14T08:46:21;9.90;;;2.60;;
51800;SDS011;37855;53.204;6.568;2023-06-14T08:48:52;8.27;;;2.53;;
51800;SDS011;37855;53.204;6.568;2023-06-14T08:51:22;12.87;;;2.90;;
51800;SDS011;37855;53.204;6.568;2023-06-14T08:53:53;7.38;;;2.42;;
51800;SDS011;37855;53.204;6.568;2023-06-14T08:56:26;6.15;;;2.20;;
51800;SDS011;37855;53.204;6.568;2023-06-14T08:58:56;7.30;;;2.50;;
51800;SDS011;37855;53.204;6.568;2023-06-14T09:01:22;9.35;;;2.70;;
51800;SDS011;37855;53.204;6.568;2023-06-14T09:03:49;7.40;;;2.30;;
51800;SDS011;37855;53.204;6.568;2023-06-14T09:06:15;8.70;;;2.45;;
51800;SDS011;37855;53.204;6.568;2023-06-14T09:08:45;9.90;;;2.70;;
51800;SDS011;37855;53.204;6.568;2023-06-14T09:11:12;6.30;;;2.50;;
51800;SDS011;37855;53.204;6.568;2023-06-14T09:13:39;9.93;;;2.88;;
51800;SDS011;37855;53.204;6.568;2023-06-14T09:16:06;9.47;;;2.97;;
51800;SDS011;37855;53.204;6.568;2023-06-14T09:18:36;7.15;;;2.65;;
51800;SDS011;37855;53.204;6.568;2023-06-14T09:21:03;9.65;;;2.75;;
51800;SDS011;37855;53.204;6.568;2023-06-14T09:23:33;7.95;;;2.28;;
51800;SDS011;37855;53.204;6.568;2023-06-14T09:26:05;9.82;;;2.67;;
51800;SDS011;37855;53.204;6.568;2023-06-14T09:28:35;11.40;;;2.30;;
51800;SDS011;37855;53.204;6.568;2023-06-14T09:31:01;7.35;;;2.60;;
51800;SDS011;37855;53.204;6.568;2023-06-14T09:33:27;9.25;;;2.58;;
51800;SDS011;37855;53.204;6.568;2023-06-14T09:35:54;7.80;;;2.57;;
51800;SDS011;37855;53.204;6.568;2023-06-14T09:38:20;9.38;;;2.47;;
51800;SDS011;37855;53.204;6.568;2023-06-14T09:40:46;8.80;;;3.00;;
51800;SDS011;37855;53.204;6.568;2023-06-14T09:43:12;13.03;;;2.47;;
51800;SDS011;37855;53.204;6.568;2023-06-14T09:45:38;15.60;;;3.27;;
51800;SDS011;37855;53.204;6.568;2023-06-14T09:48:08;9.45;;;2.60;;
51800;SDS011;37855;53.204;6.568;2023-06-14T09:50:34;9.20;;;2.72;;
51800;SDS011;37855;53.204;6.568;2023-06-14T09:53:06;9.80;;;2.45;;
51800;SDS011;37855;53.204;6.568;2023-06-14T09:55:35;11.43;;;2.67;;
51800;SDS011;37855;53.204;6.568;2023-06-14T09:58:05;7.72;;;2.30;;
51800;SDS011;37855;53.204;6.568;2023-06-14T10:00:32;9.52;;;2.70;;
51800;SDS011;37855;53.204;6.568;2023-06-14T10:03:05;5.75;;;2.10;;
51800;SDS011;37855;53.204;6.568;2023-06-14T10:05:46;10.52;;;2.50;;
51800;SDS011;37855;53.204;6.568;2023-06-14T10:08:14;6.77;;;2.60;;
51800;SDS011;37855;53.204;6.568;2023-06-14T10:10:42;9.50;;;2.60;;
51800;SDS011;37855;53.204;6.568;2023-06-14T10:13:12;6.45;;;2.38;;
51800;SDS011;37855;53.204;6.568;2023-06-14T10:18:22;7.25;;;2.33;;
51800;SDS011;37855;53.204;6.568;2023-06-14T10:21:06;7.10;;;2.10;;
51800;SDS011;37855;53.204;6.568;2023-06-14T10:23:54;14.23;;;2.88;;
51800;SDS011;37855;53.204;6.568;2023-06-14T10:26:23;6.93;;;2.40;;
51800;SDS011;37855;53.204;6.568;2023-06-14T10:29:00;8.75;;;2.20;;
51800;SDS011;37855;53.204;6.568;2023-06-14T10:31:47;8.73;;;2.28;;
51800;SDS011;37855;53.204;6.568;2023-06-14T10:34:22;8.17;;;2.50;;
51800;SDS011;37855;53.204;6.568;2023-06-14T10:37:02;9.77;;;2.50;;
51800;SDS011;37855;53.204;6.568;2023-06-14T10:39:33;7.50;;;2.38;;
51800;SDS011;37855;53.204;6.568;2023-06-14T10:42:06;9.85;;;2.40;;
51800;SDS011;37855;53.204;6.568;2023-06-14T10:44:42;12.05;;;2.65;;
51800;SDS011;37855;53.204;6.568;2023-06-14T10:47:09;7.77;;;2.27;;
51800;SDS011;37855;53.204;6.568;2023-06-14T10:49:42;11.50;;;2.78;;
51800;SDS011;37855;53.204;6.568;2023-06-14T10:52:13;7.22;;;2.35;;
51800;SDS011;37855;53.204;6.568;2023-06-14T10:57:29;6.97;;;2.38;;
51800;SDS011;37855;53.204;6.568;2023-06-14T11:00:02;7.83;;;2.23;;
51800;SDS011;37855;53.204;6.568;2023-06-14T11:08:27;16.48;;;2.42;;
51800;SDS011;37855;53.204;6.568;2023-06-14T11:11:05;10.32;;;2.65;;
51800;SDS011;37855;53.204;6.568;2023-06-14T11:13:32;10.23;;;2.30;;
51800;SDS011;37855;53.204;6.568;2023-06-14T11:16:01;7.90;;;2.13;;
51800;SDS011;37855;53.204;6.568;2023-06-14T11:18:27;10.27;;;2.50;;
51800;SDS011;37855;53.204;6.568;2023-06-14T11:20:53;8.87;;;2.37;;
51800;SDS011;37855;53.204;6.568;2023-06-14T11:23:20;8.55;;;2.45;;
51800;SDS011;37855;53.204;6.568;2023-06-14T11:25:53;9.50;;;2.33;;
51800;SDS011;37855;53.204;6.568;2023-06-14T11:28:18;8.20;;;2.33;;
51800;SDS011;37855;53.204;6.568;2023-06-14T11:30:46;6.00;;;2.30;;
51800;SDS011;37855;53.204;6.568;2023-06-14T11:33:18;7.50;;;2.10;;
51800;SDS011;37855;53.204;6.568;2023-06-14T11:35:47;7.85;;;2.25;;
51800;SDS011;37855;53.204;6.568;2023-06-14T11:38:12;7.93;;;1.90;;
51800;SDS011;37855;53.204;6.568;2023-06-14T11:40:38;8.53;;;2.37;;
51800;SDS011;37855;53.204;6.568;2023-06-14T11:43:04;14.50;;;2.30;;
51800;SDS011;37855;53.204;6.568;2023-06-14T11:45:30;5.00;;;1.80;;
51800;SDS011;37855;53.204;6.568;2023-06-14T11:47:56;6.03;;;1.97;;
51800;SDS011;37855;53.204;6.568;2023-06-14T11:50:23;8.80;;;1.90;;
51800;SDS011;37855;53.204;6.568;2023-06-14T11:52:53;6.00;;;1.80;;
51800;SDS011;37855;53.204;6.568;2023-06-14T11:55:25;6.93;;;1.90;;
51800;SDS011;37855;53.204;6.568;2023-06-14T11:57:56;5.05;;;2.00;;
51800;SDS011;37855;53.204;6.568;2023-06-14T12:00:25;5.67;;;1.60;;
51800;SDS011;37855;53.204;6.568;2023-06-14T12:02:53;5.15;;;1.98;;
51800;SDS011;37855;53.204;6.568;2023-06-14T12:05:21;5.30;;;1.80;;
51800;SDS011;37855;53.204;6.568;2023-06-14T12:07:47;10.25;;;2.10;;
51800;SDS011;37855;53.204;6.568;2023-06-14T12:10:13;12.50;;;2.10;;
51800;SDS011;37855;53.204;6.568;2023-06-14T12:12:39;6.17;;;1.80;;
51800;SDS011;37855;53.204;6.568;2023-06-14T12:15:07;7.45;;;1.90;;
51800;SDS011;37855;53.204;6.568;2023-06-14T12:17:37;4.72;;;1.80;;
51800;SDS011;37855;53.204;6.568;2023-06-14T12:20:10;10.07;;;2.15;;
51800;SDS011;37855;53.204;6.568;2023-06-14T12:22:39;9.73;;;1.70;;
51800;SDS011;37855;53.204;6.568;2023-06-14T12:27:58;4.95;;;1.88;;
51800;SDS011;37855;53.204;6.568;2023-06-14T12:30:24;4.78;;;1.77;;
51800;SDS011;37855;53.204;6.568;2023-06-14T12:32:50;5.73;;;1.77;;
51800;SDS011;37855;53.204;6.568;2023-06-14T12:35:16;5.97;;;1.75;;
51800;SDS011;37855;53.204;6.568;2023-06-14T12:37:43;16.20;;;2.35;;
51800;SDS011;37855;53.204;6.568;2023-06-14T12:40:11;9.43;;;1.85;;
51800;SDS011;37855;53.204;6.568;2023-06-14T12:42:37;7.43;;;1.90;;
51800;SDS011;37855;53.204;6.568;2023-06-14T12:45:06;5.20;;;1.90;;
51800;SDS011;37855;53.204;6.568;2023-06-14T12:47:31;4.97;;;2.10;;
51800;SDS011;37855;53.204;6.568;2023-06-14T12:49:57;6.33;;;2.13;;
51800;SDS011;37855;53.204;6.568;2023-06-14T12:52:23;3.63;;;1.80;;
51800;SDS011;37855;53.204;6.568;2023-06-14T12:54:49;4.63;;;1.60;;
51800;SDS011;37855;53.204;6.568;2023-06-14T12:57:15;7.80;;;2.40;;
51800;SDS011;37855;53.204;6.568;2023-06-14T12:59:41;5.63;;;2.20;;
51800;SDS011;37855;53.204;6.568;2023-06-14T13:04:39;6.13;;;1.80;;
51800;SDS011;37855;53.204;6.568;2023-06-14T13:07:04;12.20;;;1.93;;
51800;SDS011;37855;53.204;6.568;2023-06-14T13:09:30;4.40;;;1.70;;
51800;SDS011;37855;53.204;6.568;2023-06-14T13:11:56;13.23;;;2.50;;
51800;SDS011;37855;53.204;6.568;2023-06-14T13:14:22;7.17;;;2.00;;
51800;SDS011;37855;53.204;6.568;2023-06-14T13:16:47;20.52;;;2.60;;
51800;SDS011;37855;53.204;6.568;2023-06-14T13:19:13;9.47;;;2.10;;
51800;SDS011;37855;53.204;6.568;2023-06-14T13:21:39;5.88;;;2.30;;
51800;SDS011;37855;53.204;6.568;2023-06-14T13:24:05;5.07;;;1.67;;
51800;SDS011;37855;53.204;6.568;2023-06-14T13:26:32;6.10;;;1.80;;
51800;SDS011;37855;53.204;6.568;2023-06-14T13:28:58;7.28;;;2.00;;
51800;SDS011;37855;53.204;6.568;2023-06-14T13:31:23;5.25;;;1.90;;
51800;SDS011;37855;53.204;6.568;2023-06-14T13:33:49;5.87;;;2.00;;
51800;SDS011;37855;53.204;6.568;2023-06-14T13:36:15;8.55;;;2.10;;
51800;SDS011;37855;53.204;6.568;2023-06-14T13:38:41;9.57;;;2.20;;
51800;SDS011;37855;53.204;6.568;2023-06-14T13:41:06;8.05;;;1.95;;
51800;SDS011;37855;53.204;6.568;2023-06-14T13:43:32;6.53;;;1.90;;
51800;SDS011;37855;53.204;6.568;2023-06-14T13:45:58;5.30;;;2.00;;
51800;SDS011;37855;53.204;6.568;2023-06-14T13:48:23;4.63;;;1.90;;
51800;SDS011;37855;53.204;6.568;2023-06-14T13:50:49;6.53;;;2.20;;
51800;SDS011;37855;53.204;6.568;2023-06-14T13:53:15;5.90;;;2.00;;
51800;SDS011;37855;53.204;6.568;2023-06-14T13:55:41;7.38;;;2.10;;
51800;SDS011;37855;53.204;6.568;2023-06-14T13:58:06;6.07;;;2.17;;
51800;SDS011;37855;53.204;6.568;2023-06-14T14:00:33;5.75;;;2.25;;
51800;SDS011;37855;53.204;6.568;2023-06-14T14:02:59;7.88;;;2.10;;
51800;SDS011;37855;53.204;6.568;2023-06-14T14:05:25;6.80;;;2.03;;
51800;SDS011;37855;53.204;6.568;2023-06-14T14:07:55;4.82;;;2.13;;
51800;SDS011;37855;53.204;6.568;2023-06-14T14:10:22;5.85;;;1.90;;
51800;SDS011;37855;53.204;6.568;2023-06-14T14:12:50;7.93;;;1.90;;
51800;SDS011;37855;53.204;6.568;2023-06-14T14:15:16;4.82;;;2.10;;
51800;SDS011;37855;53.204;6.568;2023-06-14T14:17:42;7.67;;;2.33;;
51800;SDS011;37855;53.204;6.568;2023-06-14T14:20:08;7.95;;;2.20;;
51800;SDS011;37855;53.204;6.568;2023-06-14T14:22:34;9.48;;;2.03;;
51800;SDS011;37855;53.204;6.568;2023-06-14T14:25:00;7.17;;;2.40;;
51800;SDS011;37855;53.204;6.568;2023-06-14T14:27:25;5.63;;;2.33;;
51800;SDS011;37855;53.204;6.568;2023-06-14T14:29:51;7.07;;;1.90;;
51800;SDS011;37855;53.204;6.568;2023-06-14T14:32:17;6.15;;;2.10;;
51800;SDS011;37855;53.204;6.568;2023-06-14T14:34:42;4.13;;;1.93;;
51800;SDS011;37855;53.204;6.568;2023-06-14T14:37:08;6.28;;;1.85;;
51800;SDS011;37855;53.204;6.568;2023-06-14T14:39:34;5.70;;;1.80;;
51800;SDS011;37855;53.204;6.568;2023-06-14T14:42:01;8.70;;;2.53;;
51800;SDS011;37855;53.204;6.568;2023-06-14T14:44:27;10.48;;;2.08;;
51800;SDS011;37855;53.204;6.568;2023-06-14T14:46:53;5.90;;;1.93;;
51800;SDS011;37855;53.204;6.568;2023-06-14T14:49:18;4.80;;;2.07;;
51800;SDS011;37855;53.204;6.568;2023-06-14T14:51:44;6.38;;;2.20;;
51800;SDS011;37855;53.204;6.568;2023-06-14T14:54:10;4.57;;;2.10;;
51800;SDS011;37855;53.204;6.568;2023-06-14T14:56:36;8.60;;;2.15;;
51800;SDS011;37855;53.204;6.568;2023-06-14T14:59:06;7.03;;;2.20;;
51800;SDS011;37855;53.204;6.568;2023-06-14T15:01:32;4.70;;;2.03;;
51800;SDS011;37855;53.204;6.568;2023-06-14T15:04:00;6.03;;;2.05;;
51800;SDS011;37855;53.204;6.568;2023-06-14T15:06:26;8.05;;;2.13;;
51800;SDS011;37855;53.204;6.568;2023-06-14T15:08:53;12.25;;;2.38;;